Terminal Aerodrome Forecast
Issued by NWS Shreveport, LA

Home | Current Version | Previous Version | Text Only | Print | Product List | Glossary On
Versions: 1 2 3 4 5 6 7 8 9 10 11 12 13 14
000
FTUS44 KSHV 220805 AAA
TAFTXK
TAF AMD
KTXK 220805Z 2208/2306 18010KT P6SM VCSH OVC018
      TEMPO 2208/2210 VRB14G35KT 3SM TSRA BR BKN006CB OVC015
     FM221000 VRB15G25KT 2SM +TSRA BR BKN006CB OVC010
      TEMPO 2210/2213 25012KT 5SM -TSRA BR OVC015CB
     FM221300 25010KT P6SM -TSRA BKN015CB
     FM221500 30010G17KT P6SM SCT045 BKN130
     FM221800 33008KT P6SM OVC015
     FM222200 34010G16KT P6SM BKN050=

USA.gov is the U.S. government's official web portal to all federal, state and local government web resources and services.